Time;durP1;ratioP1;P1;durP2;ratioP2;P2;SDS_P1;SDS_P2;PMS_P1;PMS_P2;Temp;Humidity;BMP_temperature;BMP_pressure;BME280_temperature;BME280_humidity;BME280_pressure;Samples;Min_cycle;Max_cycle;Signal;HPM_P1;HPM_P2
2021/10/01 00:01:43;;;;;;;0.25;0.25;;;;;;;5.25;70.44;98839.25;5034856;28;20047;-63
2021/10/01 00:04:09;;;;;;;0.10;0.10;;;;;;;5.22;70.47;98845.09;5034569;28;20053;-63
2021/10/01 00:06:35;;;;;;;0.20;0.20;;;;;;;5.18;70.45;98846.56;5034537;28;20060;-64
2021/10/01 00:09:01;;;;;;;0.20;0.20;;;;;;;5.16;70.49;98848.63;5034395;28;20045;-64
2021/10/01 00:11:26;;;;;;;0.20;0.20;;;;;;;5.16;70.61;98855.94;5034401;28;20052;-64
2021/10/01 00:13:52;;;;;;;0.20;0.20;;;;;;;5.18;70.47;98860.16;5016991;28;20041;-63
2021/10/01 00:20:20;;;;;;;0.90;0.32;;;;;;;5.11;70.57;98866.56;5026754;28;20040;-63
2021/10/01 00:23:26;;;;;;;0.30;0.30;;;;;;;5.01;70.92;98866.94;5028219;28;20042;-63
2021/10/01 00:26:11;;;;;;;;;;;;;;;4.90;71.00;98890.94;5033625;28;20128;-63
2021/10/01 00:32:39;;;;;;;0.20;0.20;;;;;;;4.62;71.57;98881.88;5023928;28;20048;-66
2021/10/01 00:35:45;;;;;;;0.30;0.30;;;;;;;4.50;71.53;98885.09;5027415;28;20037;-62
2021/10/01 00:42:12;;;;;;;0.20;0.20;;;;;;;4.46;71.70;98892.00;5024410;28;20457;-64
2021/10/01 00:45:18;;;;;;;0.32;0.32;;;;;;;4.49;71.48;98894.31;5028096;28;20046;-62
2021/10/01 00:48:23;;;;;;;0.30;0.30;;;;;;;4.49;71.30;98899.75;5053591;28;20056;-63
2021/10/01 00:51:29;;;;;;;0.20;0.20;;;;;;;4.45;71.37;98909.31;5053506;28;20077;-64
2021/10/01 00:54:34;;;;;;;0.35;0.35;;;;;;;4.45;71.45;98916.66;5053718;28;20044;-63
2021/10/01 00:57:40;;;;;;;0.52;0.32;;;;;;;4.46;71.22;98908.28;5053434;28;20051;-62
2021/10/01 01:01:09;;;;;;;0.20;0.20;;;;;;;4.48;71.22;98908.94;5034293;28;20037;-61
2021/10/01 01:10:53;;;;;;;0.20;0.20;;;;;;;4.45;71.10;98917.47;5050239;28;20088;-62
2021/10/01 01:14:17;;;;;;;0.20;0.20;;;;;;;4.51;70.98;98924.84;5052403;28;20044;-62
2021/10/01 01:20:30;;;;;;;0.20;0.20;;;;;;;4.59;70.71;98925.78;5052903;28;20114;-62
2021/10/01 01:23:36;;;;;;;0.20;0.20;;;;;;;4.62;70.59;98936.25;5052967;28;20053;-61
2021/10/01 01:26:36;;;;;;;0.20;0.20;;;;;;;4.65;70.55;98928.56;5052947;28;20037;-62
2021/10/01 01:33:07;;;;;;;0.20;0.20;;;;;;;4.73;70.55;98935.75;5048623;28;20419;-62
2021/10/01 01:36:13;;;;;;;0.20;0.20;;;;;;;4.80;70.42;98923.06;5048601;28;20392;-65
2021/10/01 01:39:19;;;;;;;0.32;0.32;;;;;;;4.85;70.50;98933.38;5052460;28;20419;-63
2021/10/01 01:42:24;;;;;;;0.20;0.20;;;;;;;4.89;70.46;98935.50;5035158;28;20497;-63
2021/10/01 01:45:30;;;;;;;0.40;0.40;;;;;;;4.94;70.55;98934.06;5052210;28;20048;-63
2021/10/01 01:48:35;;;;;;;0.38;0.38;;;;;;;4.98;70.41;98927.22;5052521;28;20041;-60
2021/10/01 01:51:22;;;;;;;;;;;;;;;4.93;70.62;98932.38;5034625;28;20032;-60
2021/10/01 01:57:49;;;;;;;0.20;0.20;;;;;;;4.72;71.15;98937.63;5052489;28;20103;-62
2021/10/01 02:07:04;;;;;;;0.40;0.40;;;;;;;4.89;70.92;98953.72;5031904;28;20106;-65
2021/10/01 02:09:31;;;;;;;0.20;0.20;;;;;;;4.94;70.89;98945.78;5036502;28;20044;-67
2021/10/01 02:11:57;;;;;;;0.20;0.20;;;;;;;4.99;70.84;98959.66;5047076;28;20041;-64
2021/10/01 02:14:28;;;;;;;0.30;0.30;;;;;;;5.03;71.02;98955.50;5048701;28;20036;-66
2021/10/01 02:16:56;;;;;;;0.25;0.25;;;;;;;5.07;70.87;98962.22;5031399;28;20044;-65
2021/10/01 02:19:26;;;;;;;1.38;0.50;;;;;;;5.12;70.88;98961.63;5051930;28;20131;-64
2021/10/01 02:21:53;;;;;;;0.50;0.50;;;;;;;5.19;70.91;98965.28;5052663;28;20036;-64
2021/10/01 02:24:20;;;;;;;0.20;0.20;;;;;;;5.22;70.79;98967.59;5052246;28;20530;-63
2021/10/01 02:27:01;;;;;;;0.20;0.20;;;;;;;5.22;70.89;98970.31;5050845;28;20503;-63
2021/10/01 02:29:36;;;;;;;0.20;0.20;;;;;;;5.28;70.70;98970.59;5049363;28;20032;-65
2021/10/01 02:32:05;;;;;;;0.20;0.20;;;;;;;5.32;70.84;98974.59;5049681;28;20044;-64
2021/10/01 02:34:41;;;;;;;0.30;0.30;;;;;;;5.32;70.72;98980.03;5049534;28;20173;-64
2021/10/01 02:37:08;;;;;;;0.20;0.20;;;;;;;5.26;70.76;98984.41;5049709;28;20511;-65
2021/10/01 02:39:40;;;;;;;0.20;0.20;;;;;;;5.26;70.89;98989.84;5050151;28;20096;-64
2021/10/01 02:42:07;;;;;;;3.30;0.30;;;;;;;5.24;70.96;98992.75;5050947;28;20041;-64
2021/10/01 02:44:35;;;;;;;0.20;0.20;;;;;;;5.22;71.08;99013.03;5052341;28;20130;-65
2021/10/01 02:47:00;;;;;;;0.30;0.30;;;;;;;5.15;71.09;99006.69;5051639;28;20131;-64
2021/10/01 02:49:27;;;;;;;0.20;0.20;;;;;;;5.12;71.32;99001.63;5050914;28;20132;-64
2021/10/01 02:51:59;;;;;;;0.20;0.20;;;;;;;5.11;71.27;99005.38;5050815;28;20037;-64
2021/10/01 02:54:40;;;;;;;0.20;0.20;;;;;;;5.10;71.26;99004.56;5050924;28;20037;-63
2021/10/01 02:57:11;;;;;;;0.28;0.28;;;;;;;5.07;71.20;99010.41;5051281;28;20051;-63
2021/10/01 02:59:44;;;;;;;1.02;0.68;;;;;;;4.99;71.34;99010.50;5051658;28;20048;-64
2021/10/01 03:02:11;;;;;;;0.20;0.20;;;;;;;4.95;71.33;99017.38;5052206;28;20491;-66
2021/10/01 03:04:38;;;;;;;0.20;0.20;;;;;;;4.95;71.27;99020.94;5051952;28;20052;-63
2021/10/01 03:07:04;;;;;;;0.20;0.20;;;;;;;4.95;71.31;99022.81;5052158;28;20056;-63
2021/10/01 03:09:32;;;;;;;0.20;0.20;;;;;;;4.95;71.14;99030.97;5052081;28;20040;-61
2021/10/01 03:12:00;;;;;;;0.30;0.30;;;;;;;4.91;71.09;99030.53;5051745;28;20364;-61
2021/10/01 03:14:28;;;;;;;0.20;0.20;;;;;;;4.93;71.18;99043.94;5051816;28;20059;-64
2021/10/01 03:16:56;;;;;;;0.30;0.30;;;;;;;4.93;70.97;99042.06;5051682;28;20044;-65
2021/10/01 03:19:24;;;;;;;0.20;0.20;;;;;;;4.95;70.89;99052.75;5051594;28;20068;-64
2021/10/01 03:21:55;;;;;;;0.20;0.20;;;;;;;4.97;70.85;99050.69;5051349;28;20495;-64
2021/10/01 03:24:21;;;;;;;0.20;0.20;;;;;;;4.94;70.82;99064.69;5055679;28;20044;-64
2021/10/01 03:26:48;;;;;;;0.20;0.20;;;;;;;4.86;70.90;99060.22;5055622;28;20554;-64
2021/10/01 03:29:14;;;;;;;0.20;0.20;;;;;;;4.89;70.83;99054.38;5054920;28;20098;-64
2021/10/01 03:31:41;;;;;;;0.20;0.20;;;;;;;4.97;70.61;99059.69;5055473;28;20040;-65
2021/10/01 03:34:07;;;;;;;0.30;0.30;;;;;;;5.03;70.30;99064.34;5055541;28;20049;-65
2021/10/01 03:36:35;;;;;;;0.20;0.20;;;;;;;5.14;69.81;99073.03;5055376;28;20079;-65
2021/10/01 03:39:01;;;;;;;0.20;0.20;;;;;;;5.17;69.66;99080.84;5055069;28;20048;-65
2021/10/01 03:41:27;;;;;;;0.20;0.20;;;;;;;5.12;69.75;99086.03;5055039;28;20041;-65
2021/10/01 03:43:53;;;;;;;0.20;0.20;;;;;;;5.06;69.80;99080.31;5055037;28;20144;-65
2021/10/01 03:46:19;;;;;;;0.38;0.35;;;;;;;4.96;70.06;99074.34;5055140;28;20037;-63
2021/10/01 03:48:45;;;;;;;0.20;0.20;;;;;;;4.87;70.10;99089.94;5054847;28;20045;-65
2021/10/01 03:51:11;;;;;;;0.20;0.20;;;;;;;4.79;70.07;99105.53;5044913;28;20106;-66
2021/10/01 03:53:38;;;;;;;0.20;0.20;;;;;;;4.73;69.94;99091.66;5043254;28;20049;-65
2021/10/01 03:56:06;;;;;;;0.20;0.20;;;;;;;4.66;70.07;99100.75;5044244;28;20045;-64
2021/10/01 03:58:32;;;;;;;0.20;0.20;;;;;;;4.60;69.96;99106.97;5042429;28;20041;-65
2021/10/01 04:00:58;;;;;;;0.20;0.20;;;;;;;4.50;70.16;99102.63;5043504;28;20048;-66
2021/10/01 04:03:23;;;;;;;0.20;0.20;;;;;;;4.47;69.90;99107.63;5026335;28;20075;-66
2021/10/01 04:05:49;;;;;;;0.20;0.20;;;;;;;4.44;69.89;99113.44;5042130;28;20077;-65
2021/10/01 04:08:15;;;;;;;0.20;0.20;;;;;;;4.42;69.66;99116.34;5043218;28;20499;-64
2021/10/01 04:10:40;;;;;;;0.20;0.20;;;;;;;4.44;69.48;99111.56;5043721;28;20461;-66
2021/10/01 04:13:09;;;;;;;0.20;0.20;;;;;;;4.66;68.76;99108.91;5042319;28;20049;-64
2021/10/01 04:15:35;;;;;;;0.20;0.20;;;;;;;4.83;68.15;99129.44;5043405;28;20057;-65
2021/10/01 04:18:02;;;;;;;0.20;0.20;;;;;;;4.83;68.27;99128.59;5041364;28;20100;-67
2021/10/01 04:20:28;;;;;;;0.30;0.30;;;;;;;4.76;68.02;99128.50;5044290;28;20067;-65
2021/10/01 04:22:54;;;;;;;0.20;0.20;;;;;;;4.72;68.09;99138.09;5042534;28;20388;-65
2021/10/01 04:25:19;;;;;;;0.20;0.20;;;;;;;4.53;68.42;99137.63;5042500;28;20048;-65
2021/10/01 04:27:45;;;;;;;0.20;0.20;;;;;;;4.34;68.66;99144.47;5043972;28;20045;-65
2021/10/01 04:30:11;;;;;;;0.20;0.20;;;;;;;4.21;68.86;99141.53;5041629;28;20514;-65
2021/10/01 04:32:43;;;;;;;0.20;0.20;;;;;;;4.17;68.95;99151.94;5042881;28;20037;-66
2021/10/01 04:35:09;;;;;;;0.47;0.47;;;;;;;4.19;68.75;99152.59;5043009;28;20510;-65
2021/10/01 04:37:35;;;;;;;0.20;0.20;;;;;;;4.27;68.38;99159.84;5045541;28;20041;-65
2021/10/01 04:40:03;;;;;;;0.25;0.25;;;;;;;4.27;68.13;99151.69;5041148;28;20126;-70
2021/10/01 04:42:28;;;;;;;0.20;0.20;;;;;;;4.29;67.91;99154.22;5043638;28;20037;-65
2021/10/01 04:44:55;;;;;;;0.20;0.20;;;;;;;4.36;67.64;99164.16;5042510;28;20088;-66
2021/10/01 04:47:21;;;;;;;0.20;0.20;;;;;;;4.41;67.44;99165.47;5042195;28;20099;-65
2021/10/01 04:49:47;;;;;;;1.25;0.30;;;;;;;4.36;67.50;99166.88;5043589;28;20471;-68
2021/10/01 04:52:13;;;;;;;0.25;0.25;;;;;;;4.45;67.33;99177.69;5042194;28;20045;-69
2021/10/01 04:54:39;;;;;;;0.20;0.20;;;;;;;4.76;66.15;99163.06;5042331;28;20044;-66
2021/10/01 04:57:07;;;;;;;0.38;0.38;;;;;;;5.00;65.69;99180.94;5043433;28;20518;-66
2021/10/01 04:59:33;;;;;;;0.30;0.30;;;;;;;4.97;65.58;99178.59;5041292;28;20043;-65
2021/10/01 05:01:58;;;;;;;0.20;0.20;;;;;;;5.08;65.27;99191.72;5042408;28;20037;-69
2021/10/01 05:04:24;;;;;;;1.17;0.60;;;;;;;5.14;65.10;99187.38;5043350;28;20119;-65
2021/10/01 05:06:50;;;;;;;0.50;0.50;;;;;;;5.12;65.05;99192.19;5040964;28;20049;-65
2021/10/01 05:09:16;;;;;;;0.20;0.20;;;;;;;5.08;65.16;99184.41;5042288;28;20037;-64
2021/10/01 05:11:41;;;;;;;0.30;0.30;;;;;;;5.24;64.83;99193.38;5038925;28;20034;-64
2021/10/01 05:14:07;;;;;;;0.40;0.40;;;;;;;5.48;64.21;99196.78;5036522;28;20048;-63
2021/10/01 05:16:33;;;;;;;0.20;0.20;;;;;;;5.59;63.85;99196.28;5037978;28;20135;-64
2021/10/01 05:18:58;;;;;;;0.20;0.20;;;;;;;5.50;64.01;99195.56;5021191;28;20037;-64
2021/10/01 05:21:24;;;;;;;0.20;0.20;;;;;;;5.43;64.00;99200.09;5031860;28;20049;-63
2021/10/01 05:23:50;;;;;;;0.20;0.20;;;;;;;5.43;64.13;99216.41;5038666;28;20053;-63
2021/10/01 05:26:16;;;;;;;0.20;0.20;;;;;;;5.43;63.91;99210.97;5049346;28;20395;-63
2021/10/01 05:28:41;;;;;;;0.20;0.20;;;;;;;5.31;64.15;99215.25;5030798;28;20562;-63
2021/10/01 05:31:07;;;;;;;0.20;0.20;;;;;;;5.03;64.67;99207.75;5013958;28;20206;-62
2021/10/01 05:33:33;;;;;;;0.20;0.20;;;;;;;4.79;64.94;99226.06;5050350;28;20045;-64
2021/10/01 05:35:59;;;;;;;0.20;0.20;;;;;;;4.82;64.82;99233.03;5051149;28;20051;-62
2021/10/01 05:38:25;;;;;;;0.20;0.20;;;;;;;4.99;64.23;99220.06;5045825;28;20040;-61
2021/10/01 05:40:51;;;;;;;0.20;0.20;;;;;;;5.22;63.53;99209.06;5031398;28;20115;-62
2021/10/01 05:43:23;;;;;;;0.20;0.20;;;;;;;5.39;62.98;99226.03;5038499;28;20057;-61
2021/10/01 05:45:49;;;;;;;0.20;0.20;;;;;;;5.45;62.68;99219.81;5029961;28;20045;-60
2021/10/01 05:48:15;;;;;;;0.30;0.30;;;;;;;5.49;62.52;99232.03;5031152;28;20100;-62
2021/10/01 05:50:43;;;;;;;0.20;0.20;;;;;;;5.42;62.60;99225.66;5025444;28;20041;-62
2021/10/01 05:53:24;;;;;;;0.20;0.20;;;;;;;5.45;62.57;99225.25;5036563;28;20052;-62
2021/10/01 05:55:50;;;;;;;0.20;0.20;;;;;;;5.53;62.32;99216.97;5050589;28;20048;-61
2021/10/01 05:58:17;;;;;;;0.22;0.22;;;;;;;5.35;62.64;99231.00;5051153;28;20037;-61
2021/10/01 06:00:43;;;;;;;0.20;0.20;;;;;;;5.04;63.36;99214.91;5050228;28;20037;-61
2021/10/01 06:03:09;;;;;;;0.20;0.20;;;;;;;4.84;63.85;99210.00;5043571;28;20045;-62
2021/10/01 06:05:34;;;;;;;0.20;0.20;;;;;;;4.71;64.06;99215.28;5040204;28;20037;-62
2021/10/01 06:08:00;;;;;;;0.20;0.20;;;;;;;4.57;64.33;99209.63;5050409;28;20479;-62
2021/10/01 06:10:26;;;;;;;0.20;0.20;;;;;;;4.39;64.69;99215.44;5030949;28;20365;-62
2021/10/01 06:12:51;;;;;;;0.35;0.35;;;;;;;4.25;64.86;99218.97;5031645;28;20539;-64
2021/10/01 06:15:18;;;;;;;0.28;0.28;;;;;;;4.12;65.05;99225.03;5046412;28;20883;-64
2021/10/01 06:17:43;;;;;;;0.20;0.20;;;;;;;4.02;65.22;99224.44;5047508;28;20072;-61
2021/10/01 06:20:10;;;;;;;0.20;0.20;;;;;;;3.90;65.21;99218.59;5048610;28;20133;-64
2021/10/01 06:22:38;;;;;;;0.20;0.20;;;;;;;3.86;65.18;99225.41;5049256;28;20045;-61
2021/10/01 06:25:04;;;;;;;0.20;0.20;;;;;;;3.84;65.02;99244.63;5034648;28;20051;-64
2021/10/01 06:27:30;;;;;;;0.20;0.20;;;;;;;3.84;64.88;99227.44;5029558;28;20626;-63
2021/10/01 06:29:57;;;;;;;0.20;0.20;;;;;;;3.96;64.58;99219.72;5010767;28;20136;-64
2021/10/01 06:32:23;;;;;;;0.20;0.20;;;;;;;4.03;64.14;99220.69;5031950;28;20079;-61
2021/10/01 06:34:50;;;;;;;0.20;0.20;;;;;;;4.09;63.84;99225.38;5033200;28;20042;-61
2021/10/01 06:37:17;;;;;;;0.20;0.20;;;;;;;4.21;63.32;99215.78;5036905;28;20061;-61
2021/10/01 06:39:42;;;;;;;0.20;0.20;;;;;;;4.50;62.70;99214.13;5049390;28;20091;-61
2021/10/01 06:42:10;;;;;;;0.20;0.20;;;;;;;4.65;62.32;99207.88;5038145;28;20036;-60
2021/10/01 06:44:36;;;;;;;0.35;0.35;;;;;;;4.74;62.30;99225.78;5043127;28;20041;-61
2021/10/01 06:47:08;;;;;;;0.20;0.20;;;;;;;4.72;62.23;99220.53;5044599;28;20041;-63
2021/10/01 07:23:05;;;;;;;0.20;0.20;;;;;;;5.65;61.55;99219.19;5053477;28;20537;-62
2021/10/01 08:19:33;;;;;;;0.20;0.20;;;;;;;7.23;57.58;99203.44;5054885;28;20051;-65
2021/10/01 08:21:59;;;;;;;0.20;0.20;;;;;;;7.05;57.94;99205.84;5054993;28;20049;-62
2021/10/01 08:24:27;;;;;;;0.20;0.20;;;;;;;6.84;58.17;99203.00;5054494;28;20122;-61
2021/10/01 08:26:53;;;;;;;0.20;0.20;;;;;;;6.61;58.71;99206.03;5054375;28;20519;-62
2021/10/01 08:29:21;;;;;;;0.20;0.20;;;;;;;6.47;58.99;99204.25;5036018;28;20431;-61
2021/10/01 08:31:49;;;;;;;0.20;0.20;;;;;;;6.40;59.17;99196.00;5054445;28;20086;-62
2021/10/01 08:34:16;;;;;;;0.15;0.15;;;;;;;6.45;58.76;99198.16;5054515;28;20049;-61
2021/10/01 08:36:43;;;;;;;0.20;0.20;;;;;;;6.49;58.45;99183.03;5054864;28;20057;-61
2021/10/01 08:39:10;;;;;;;0.20;0.20;;;;;;;6.63;58.15;99184.81;5054142;28;20499;-62
2021/10/01 08:41:37;;;;;;;0.20;0.20;;;;;;;6.79;57.79;99193.75;5053999;28;20075;-61
2021/10/01 08:44:04;;;;;;;0.20;0.20;;;;;;;6.89;57.44;99187.91;5053935;28;20045;-62
2021/10/01 08:46:30;;;;;;;0.10;0.10;;;;;;;6.97;57.21;99194.03;5054345;28;20495;-62
2021/10/01 08:49:00;;;;;;;0.20;0.20;;;;;;;7.01;57.10;99187.16;5054361;28;20040;-61
2021/10/01 08:51:26;;;;;;;0.20;0.20;;;;;;;7.01;57.14;99194.50;5053787;28;20036;-62
2021/10/01 08:53:55;;;;;;;0.30;0.30;;;;;;;6.93;57.30;99189.19;5053675;28;20041;-66
2021/10/01 08:56:24;;;;;;;0.82;0.65;;;;;;;6.84;57.50;99192.06;5054034;28;20040;-62
2021/10/01 08:58:50;;;;;;;0.20;0.20;;;;;;;6.74;57.74;99199.78;5053503;28;20036;-62
2021/10/01 09:01:15;;;;;;;0.20;0.20;;;;;;;6.73;57.55;99198.13;5044210;28;20047;-64
2021/10/01 09:03:42;;;;;;;0.20;0.20;;;;;;;6.81;57.43;99195.22;5032636;28;20080;-64
2021/10/01 09:06:09;;;;;;;0.50;0.50;;;;;;;6.88;57.13;99186.25;5041228;28;20076;-63
2021/10/01 09:08:55;;;;;;;0.10;0.10;;;;;;;6.94;56.90;99186.25;5040948;28;20041;-62
2021/10/01 09:11:35;;;;;;;0.13;0.13;;;;;;;6.94;56.76;99202.63;5041148;28;20041;-63
2021/10/01 09:14:07;;;;;;;0.20;0.20;;;;;;;6.88;56.87;99192.53;5041325;28;20522;-63
2021/10/01 09:16:35;;;;;;;0.20;0.20;;;;;;;6.90;56.72;99198.63;5041664;28;20059;-62
2021/10/01 09:19:02;;;;;;;0.20;0.20;;;;;;;6.93;56.81;99187.28;5023128;28;20562;-62
2021/10/01 09:21:30;;;;;;;0.20;0.20;;;;;;;7.05;56.35;99197.66;5041780;28;20091;-63
2021/10/01 09:24:07;;;;;;;0.10;0.10;;;;;;;7.08;56.24;99194.50;5042702;28;20546;-62
2021/10/01 09:26:34;;;;;;;0.20;0.20;;;;;;;7.14;56.08;99190.97;5042668;28;20128;-62
2021/10/01 09:29:07;;;;;;;0.20;0.20;;;;;;;7.21;55.89;99197.31;5040274;28;20060;-61
2021/10/01 09:31:37;;;;;;;0.20;0.20;;;;;;;7.25;55.85;99200.50;5040935;28;20045;-63
2021/10/01 09:34:07;;;;;;;0.20;0.20;;;;;;;7.37;55.50;99205.13;5041112;28;20449;-63
2021/10/01 09:36:33;;;;;;;0.20;0.20;;;;;;;7.52;55.21;99210.47;5040960;28;20056;-63
2021/10/01 09:39:00;;;;;;;0.20;0.20;;;;;;;7.64;54.95;99201.66;5042614;28;20116;-62
2021/10/01 09:41:28;;;;;;;0.10;0.10;;;;;;;7.62;54.93;99204.59;5041008;28;20518;-62
2021/10/01 09:44:00;;;;;;;0.20;0.20;;;;;;;7.63;55.15;99209.03;5040337;28;20041;-62
2021/10/01 09:46:41;;;;;;;0.20;0.20;;;;;;;7.73;55.03;99205.91;5041184;28;20410;-62
2021/10/01 09:49:08;;;;;;;0.20;0.20;;;;;;;7.77;54.86;99207.16;5040286;28;20146;-62
2021/10/01 09:51:36;;;;;;;0.40;0.40;;;;;;;7.68;55.06;99209.22;5033951;28;20144;-61
2021/10/01 09:54:13;;;;;;;0.20;0.20;;;;;;;7.44;55.41;99209.81;5031094;28;20048;-64
2021/10/01 09:56:40;;;;;;;2.50;0.30;;;;;;;7.21;55.77;99207.41;5038376;28;20061;-62
2021/10/01 09:59:16;;;;;;;0.20;0.20;;;;;;;7.09;55.97;99209.88;5030474;28;20060;-63
2021/10/01 10:02:08;;;;;;;0.25;0.25;;;;;;;7.06;55.78;99205.66;5036242;28;20048;-62
2021/10/01 10:04:35;;;;;;;0.10;0.10;;;;;;;7.09;55.72;99210.69;5032631;28;20048;-63
2021/10/01 10:07:18;;;;;;;3.45;0.47;;;;;;;7.10;55.45;99200.63;5033968;28;20041;-63
2021/10/01 10:10:08;;;;;;;0.20;0.20;;;;;;;7.08;55.48;99202.72;5030322;28;20128;-62
2021/10/01 10:12:34;;;;;;;0.20;0.20;;;;;;;7.03;55.53;99202.50;5022867;28;20100;-62
2021/10/01 10:15:02;;;;;;;0.25;0.25;;;;;;;7.04;55.26;99201.41;5011443;28;20508;-62
2021/10/01 10:17:29;;;;;;;0.22;0.22;;;;;;;7.13;55.17;99200.22;5029410;28;20057;-63
2021/10/01 10:19:58;;;;;;;1.15;0.20;;;;;;;7.19;54.96;99191.22;5037554;28;20044;-63
2021/10/01 10:22:25;;;;;;;0.25;0.25;;;;;;;7.27;54.65;99196.47;5041015;28;20060;-64
2021/10/01 10:24:52;;;;;;;0.20;0.20;;;;;;;7.31;54.49;99203.22;5033602;28;20415;-62
2021/10/01 10:27:18;;;;;;;0.20;0.20;;;;;;;7.30;54.40;99200.69;5028525;28;20037;-64
2021/10/01 10:29:46;;;;;;;0.45;0.45;;;;;;;7.31;54.29;99203.22;5029389;28;20049;-65
2021/10/01 10:32:14;;;;;;;0.60;0.60;;;;;;;7.33;54.32;99203.03;5042307;28;20055;-62
2021/10/01 10:35:01;;;;;;;0.63;0.63;;;;;;;7.38;54.13;99200.53;5039459;28;20045;-63
2021/10/01 10:37:40;;;;;;;0.45;0.45;;;;;;;7.42;54.19;99201.81;5030477;28;20510;-62
2021/10/01 10:40:14;;;;;;;0.70;0.68;;;;;;;7.47;53.94;99201.19;5031497;28;20539;-62
2021/10/01 10:42:42;;;;;;;0.88;0.88;;;;;;;7.47;53.75;99206.66;5034009;28;20060;-61
2021/10/01 10:45:07;;;;;;;0.22;0.22;;;;;;;7.45;53.80;99211.47;5031684;28;20053;-63
2021/10/01 10:47:46;;;;;;;0.25;0.25;;;;;;;7.39;53.74;99209.56;5034083;28;20056;-62
2021/10/01 10:50:21;;;;;;;0.30;0.30;;;;;;;7.35;53.96;99215.44;5032351;28;20069;-62
2021/10/01 10:53:08;;;;;;;0.82;0.50;;;;;;;7.23;53.99;99195.22;5029799;28;20531;-64
2021/10/01 10:55:52;;;;;;;1.60;0.70;;;;;;;7.17;54.12;99204.25;5030813;28;20042;-64
2021/10/01 10:58:24;;;;;;;0.20;0.20;;;;;;;7.21;53.98;99207.41;5031258;28;20046;-65
2021/10/01 11:00:54;;;;;;;0.20;0.20;;;;;;;7.22;53.91;99204.47;5032009;28;20431;-64
2021/10/01 11:03:22;;;;;;;1.27;0.52;;;;;;;7.39;53.59;99209.56;5030603;28;20048;-66
2021/10/01 11:06:10;;;;;;;0.30;0.30;;;;;;;7.63;52.96;99205.47;5030907;28;20037;-65
2021/10/01 11:08:44;;;;;;;0.68;0.30;;;;;;;7.77;52.67;99203.59;5033714;28;20039;-65
2021/10/01 11:11:28;;;;;;;0.20;0.20;;;;;;;7.81;52.50;99197.50;5029650;28;20044;-65
2021/10/01 11:14:19;;;;;;;0.20;0.20;;;;;;;7.72;52.71;99210.50;5029172;28;20561;-66
2021/10/01 11:16:54;;;;;;;0.47;0.47;;;;;;;7.55;53.11;99209.19;5037578;28;20060;-69
2021/10/01 11:19:35;;;;;;;;;;;;;;;7.46;53.45;99204.97;5033235;28;20045;-64
2021/10/01 11:22:27;;;;;;;0.30;0.30;;;;;;;7.36;53.50;99205.34;5033937;28;19917;-64
2021/10/01 11:24:58;;;;;;;0.20;0.20;;;;;;;7.29;53.47;99199.03;5034191;28;20131;-65
2021/10/01 11:27:24;;;;;;;0.20;0.20;;;;;;;7.25;53.60;99214.97;5034244;28;20087;-64
2021/10/01 11:29:50;;;;;;;0.65;0.22;;;;;;;7.23;53.61;99205.28;5012440;28;20499;-64
2021/10/01 11:32:22;;;;;;;0.30;0.30;;;;;;;7.16;53.65;99195.19;5034255;28;20045;-63
2021/10/01 11:34:57;;;;;;;0.50;0.50;;;;;;;7.18;53.62;99198.56;5031875;28;20048;-64
2021/10/01 11:37:33;;;;;;;0.20;0.20;;;;;;;7.23;53.45;99206.16;5031966;28;20041;-65
2021/10/01 11:40:05;;;;;;;1.65;0.30;;;;;;;7.21;53.38;99193.75;5035339;28;20064;-64
2021/10/01 11:42:38;;;;;;;0.20;0.20;;;;;;;7.23;53.29;99200.69;5031351;28;20045;-64
2021/10/01 11:45:24;;;;;;;0.45;0.45;;;;;;;7.27;53.13;99193.75;5032456;28;20073;-64
2021/10/01 11:47:53;;;;;;;0.20;0.20;;;;;;;7.31;53.24;99196.94;5036537;28;20120;-66
2021/10/01 11:50:29;;;;;;;0.30;0.30;;;;;;;7.33;53.02;99190.22;5037382;28;20042;-64
2021/10/01 11:52:58;;;;;;;1.27;0.93;;;;;;;7.35;52.98;99193.59;5035372;28;20064;-67
2021/10/01 11:55:27;;;;;;;0.20;0.20;;;;;;;7.36;52.92;99195.28;5035058;28;20045;-65
2021/10/01 11:57:53;;;;;;;0.20;0.20;;;;;;;7.33;52.85;99203.03;5035491;28;20029;-63
2021/10/01 12:00:22;;;;;;;0.20;0.20;;;;;;;7.25;53.16;99193.13;5035359;28;20512;-61
2021/10/01 12:02:53;;;;;;;0.10;0.10;;;;;;;7.19;52.94;99188.47;5033688;28;20061;-62
2021/10/01 12:05:32;;;;;;;1.30;0.77;;;;;;;7.16;53.00;99189.72;5036176;28;20534;-64
2021/10/01 12:08:00;;;;;;;0.43;0.43;;;;;;;7.16;52.92;99188.91;5034492;28;20041;-62
2021/10/01 12:10:29;;;;;;;0.20;0.20;;;;;;;7.13;53.05;99183.84;5034637;28;20038;-62
2021/10/01 12:12:58;;;;;;;0.20;0.20;;;;;;;7.08;53.10;99194.50;5040625;28;20935;-64
2021/10/01 12:15:54;;;;;;;0.40;0.20;;;;;;;7.04;52.98;99196.81;5038366;28;20538;-62
2021/10/01 12:18:39;;;;;;;0.20;0.20;;;;;;;6.96;53.16;99186.91;5028303;28;20044;-63
2021/10/01 12:21:14;;;;;;;0.20;0.20;;;;;;;6.90;53.27;99186.88;5025877;28;20441;-63
2021/10/01 12:23:41;;;;;;;0.30;0.30;;;;;;;6.83;53.43;99204.06;5032537;28;20416;-63
2021/10/01 12:26:42;;;;;;;0.45;0.30;;;;;;;6.80;53.26;99200.88;5038644;28;20045;-62
2021/10/01 12:29:50;;;;;;;0.32;0.30;;;;;;;6.73;53.37;99189.06;5038782;28;20116;-62
2021/10/01 12:32:56;;;;;;;0.20;0.20;;;;;;;6.66;53.47;99189.88;5049525;28;20055;-63
2021/10/01 12:42:47;;;;;;;2.53;0.55;;;;;;;6.49;53.45;99192.09;5038133;28;20083;-62
2021/10/01 12:45:52;;;;;;;0.40;0.40;;;;;;;6.50;53.50;99195.66;5042043;28;20091;-62
2021/10/01 12:48:58;;;;;;;0.20;0.20;;;;;;;6.47;53.50;99187.88;5051052;28;20045;-62
2021/10/01 12:55:27;;;;;;;0.30;0.30;;;;;;;6.31;53.72;99192.56;5048839;28;20054;-63
2021/10/01 13:01:56;;;;;;;0.68;0.52;;;;;;;6.16;53.91;99189.09;5034721;28;20051;-63
2021/10/01 13:05:18;;;;;;;0.30;0.30;;;;;;;6.11;53.97;99197.00;5040254;28;20056;-62
2021/10/01 13:08:03;;;;;;;0.40;0.40;;;;;;;6.05;53.94;99195.06;5035414;28;20033;-60
2021/10/01 13:11:13;;;;;;;0.40;0.40;;;;;;;6.02;54.14;99190.03;5035161;28;20148;-61
2021/10/01 13:21:33;;;;;;;0.68;0.68;;;;;;;5.82;54.25;99187.94;5026961;28;20132;-62
2021/10/01 13:24:41;;;;;;;0.25;0.25;;;;;;;5.77;54.31;99195.81;5014007;28;20053;-63
2021/10/01 13:27:47;;;;;;;0.30;0.30;;;;;;;5.68;54.45;99192.38;5029973;28;20056;-60
2021/10/01 13:30:53;;;;;;;0.85;0.82;;;;;;;5.64;54.54;99187.53;5020327;28;20077;-60
2021/10/01 13:33:59;;;;;;;0.63;0.63;;;;;;;5.57;54.69;99187.47;5016609;28;20452;-62
2021/10/01 13:37:04;;;;;;;0.30;0.30;;;;;;;5.52;54.70;99192.63;5010350;28;20057;-64
2021/10/01 13:40:10;;;;;;;0.50;0.50;;;;;;;5.50;54.75;99186.56;5013749;28;20042;-63
2021/10/01 13:43:15;;;;;;;0.40;0.40;;;;;;;5.49;54.57;99187.56;5017402;28;20049;-62
2021/10/01 13:46:22;;;;;;;1.23;1.13;;;;;;;5.50;54.67;99192.00;5016755;28;20049;-62
2021/10/01 13:49:28;;;;;;;0.20;0.20;;;;;;;5.47;54.66;99190.50;5020296;28;20046;-63
2021/10/01 13:52:34;;;;;;;1.80;0.90;;;;;;;5.43;54.84;99191.91;5028039;28;20380;-62
2021/10/01 13:55:40;;;;;;;0.30;0.30;;;;;;;5.38;54.93;99191.66;4993508;28;20042;-64
2021/10/01 13:58:46;;;;;;;0.95;0.93;;;;;;;5.36;54.99;99197.28;5010313;28;20056;-62
2021/10/01 14:12:01;;;;;;;0.95;0.95;;;;;;;5.57;54.49;99201.09;5008649;28;20061;-62
2021/10/01 14:15:06;;;;;;;2.15;0.88;;;;;;;5.57;54.46;99195.63;5020794;28;20111;-60
2021/10/01 14:18:12;;;;;;;0.95;0.75;;;;;;;5.54;54.71;99196.88;5025281;28;20057;-60
2021/10/01 14:21:18;;;;;;;0.43;0.43;;;;;;;5.54;54.66;99205.03;5026550;28;20131;-62
2021/10/01 14:31:10;;;;;;;1.23;1.15;;;;;;;5.47;54.85;99206.84;5031649;28;20107;-60
2021/10/01 14:34:16;;;;;;;3.22;1.10;;;;;;;5.42;54.91;99210.13;5024106;28;20424;-61
2021/10/01 14:37:21;;;;;;;0.30;0.30;;;;;;;5.40;54.92;99200.47;5038647;28;20484;-60
2021/10/01 14:40:26;;;;;;;0.60;0.60;;;;;;;5.42;54.98;99201.97;5044911;28;20123;-61
2021/10/01 14:43:12;;;;;;;;;;;;;;;5.46;54.96;99198.84;5041311;28;20045;-64
2021/10/01 14:56:26;;;;;;;0.40;0.40;;;;;;;5.48;54.75;99202.22;5028393;28;20107;-63
2021/10/01 14:59:32;;;;;;;0.93;0.70;;;;;;;5.53;54.58;99206.06;5038244;28;20041;-62
2021/10/01 15:09:23;;;;;;;0.68;0.68;;;;;;;5.79;54.19;99212.84;5018726;28;20219;-61
2021/10/01 15:12:29;;;;;;;0.77;0.77;;;;;;;5.83;54.20;99208.69;5027193;28;20045;-62
2021/10/01 15:14:55;;;;;;;2.00;1.38;;;;;;;5.83;54.28;99211.44;5031975;28;20129;-61
2021/10/01 15:17:22;;;;;;;0.82;0.65;;;;;;;5.81;54.51;99218.94;5013825;28;20523;-63
2021/10/01 15:19:48;;;;;;;0.85;0.70;;;;;;;5.76;54.67;99221.41;5036260;28;20067;-63
2021/10/01 15:22:14;;;;;;;0.80;0.73;;;;;;;5.73;54.79;99219.91;5036443;28;20360;-62
2021/10/01 15:24:40;;;;;;;2.35;0.95;;;;;;;5.70;54.93;99216.75;5037892;28;20039;-61
2021/10/01 15:27:06;;;;;;;1.10;1.00;;;;;;;5.69;55.12;99225.94;5019946;28;20068;-64